sensor_id;sensor_type;location;lat;lon;timestamp;pressure;altitude;pressure_sealevel;temperature;humidity
59757;BME280;45631;51.962;5.974;2023-04-06T00:00:37;101711.59;;;2.25;100.00
59757;BME280;45631;51.962;5.974;2023-04-06T00:03:05;101710.66;;;2.29;100.00
59757;BME280;45631;51.962;5.974;2023-04-06T00:05:36;101708.00;;;2.32;100.00
59757;BME280;45631;51.962;5.974;2023-04-06T00:08:05;101704.50;;;2.35;100.00
59757;BME280;45631;51.962;5.974;2023-04-06T00:10:34;101691.72;;;2.23;100.00
59757;BME280;45631;51.962;5.974;2023-04-06T00:13:05;101693.47;;;2.20;100.00
59757;BME280;45631;51.962;5.974;2023-04-06T00:15:34;101696.19;;;2.14;100.00
59757;BME280;45631;51.962;5.974;2023-04-06T00:18:03;101694.31;;;2.23;100.00
59757;BME280;45631;51.962;5.974;2023-04-06T00:20:31;101691.84;;;2.15;100.00
59757;BME280;45631;51.962;5.974;2023-04-06T00:22:59;101687.56;;;2.12;100.00
59757;BME280;45631;51.962;5.974;2023-04-06T00:25:29;101690.25;;;2.06;100.00
59757;BME280;45631;51.962;5.974;2023-04-06T00:27:57;101683.41;;;2.02;100.00
59757;BME280;45631;51.962;5.974;2023-04-06T00:30:25;101682.41;;;2.09;100.00
59757;BME280;45631;51.962;5.974;2023-04-06T00:32:53;101683.34;;;2.05;100.00
59757;BME280;45631;51.962;5.974;2023-04-06T00:35:22;101679.22;;;1.92;100.00
59757;BME280;45631;51.962;5.974;2023-04-06T00:37:50;101673.16;;;1.93;100.00
59757;BME280;45631;51.962;5.974;2023-04-06T00:40:19;101674.00;;;1.93;100.00
59757;BME280;45631;51.962;5.974;2023-04-06T00:42:48;101665.56;;;1.82;100.00
59757;BME280;45631;51.962;5.974;2023-04-06T00:45:17;101666.28;;;1.90;100.00
59757;BME280;45631;51.962;5.974;2023-04-06T00:47:45;101662.09;;;1.80;100.00
59757;BME280;45631;51.962;5.974;2023-04-06T00:50:13;101666.44;;;1.81;100.00
59757;BME280;45631;51.962;5.974;2023-04-06T00:52:42;101662.88;;;1.86;100.00
59757;BME280;45631;51.962;5.974;2023-04-06T00:55:10;101666.38;;;1.85;100.00
59757;BME280;45631;51.962;5.974;2023-04-06T00:57:38;101658.69;;;1.78;100.00
59757;BME280;45631;51.962;5.974;2023-04-06T01:00:12;101659.59;;;1.75;100.00
59757;BME280;45631;51.962;5.974;2023-04-06T01:02:40;101657.25;;;1.60;100.00
59757;BME280;45631;51.962;5.974;2023-04-06T01:05:08;101650.38;;;1.57;100.00
59757;BME280;45631;51.962;5.974;2023-04-06T01:07:37;101651.22;;;1.58;100.00
59757;BME280;45631;51.962;5.974;2023-04-06T01:10:05;101646.84;;;1.61;100.00
59757;BME280;45631;51.962;5.974;2023-04-06T01:12:34;101639.13;;;1.58;100.00
59757;BME280;45631;51.962;5.974;2023-04-06T01:15:03;101638.38;;;1.48;100.00
59757;BME280;45631;51.962;5.974;2023-04-06T01:17:33;101637.44;;;1.52;100.00
59757;BME280;45631;51.962;5.974;2023-04-06T01:20:05;101634.84;;;1.56;100.00
59757;BME280;45631;51.962;5.974;2023-04-06T01:22:35;101632.25;;;1.56;100.00
59757;BME280;45631;51.962;5.974;2023-04-06T01:25:03;101627.97;;;1.50;100.00
59757;BME280;45631;51.962;5.974;2023-04-06T01:27:31;101617.69;;;1.45;100.00
59757;BME280;45631;51.962;5.974;2023-04-06T01:30:00;101625.56;;;1.39;100.00
59757;BME280;45631;51.962;5.974;2023-04-06T01:32:28;101622.94;;;1.41;100.00
59757;BME280;45631;51.962;5.974;2023-04-06T01:34:56;101621.31;;;1.33;100.00
59757;BME280;45631;51.962;5.974;2023-04-06T01:37:24;101620.38;;;1.39;100.00
59757;BME280;45631;51.962;5.974;2023-04-06T01:39:54;101610.94;;;1.33;100.00
59757;BME280;45631;51.962;5.974;2023-04-06T01:42:24;101620.50;;;1.30;100.00
59757;BME280;45631;51.962;5.974;2023-04-06T01:44:53;101623.97;;;1.29;100.00
59757;BME280;45631;51.962;5.974;2023-04-06T01:47:21;101613.47;;;1.38;100.00
59757;BME280;45631;51.962;5.974;2023-04-06T01:49:50;101608.47;;;1.26;100.00
59757;BME280;45631;51.962;5.974;2023-04-06T01:52:18;101604.91;;;1.33;100.00
59757;BME280;45631;51.962;5.974;2023-04-06T01:54:46;101603.13;;;1.37;100.00
59757;BME280;45631;51.962;5.974;2023-04-06T01:57:18;101609.31;;;1.26;100.00
59757;BME280;45631;51.962;5.974;2023-04-06T01:59:46;101609.25;;;1.32;100.00
59757;BME280;45631;51.962;5.974;2023-04-06T02:02:15;101605.13;;;1.17;100.00
59757;BME280;45631;51.962;5.974;2023-04-06T02:04:43;101600.91;;;1.12;100.00
59757;BME280;45631;51.962;5.974;2023-04-06T02:07:11;101597.38;;;1.17;100.00
59757;BME280;45631;51.962;5.974;2023-04-06T02:09:39;101589.69;;;1.10;100.00
59757;BME280;45631;51.962;5.974;2023-04-06T02:12:07;101591.28;;;1.20;100.00
59757;BME280;45631;51.962;5.974;2023-04-06T02:14:37;101591.31;;;1.15;100.00
59757;BME280;45631;51.962;5.974;2023-04-06T02:17:05;101592.31;;;1.08;100.00
59757;BME280;45631;51.962;5.974;2023-04-06T02:19:33;101590.69;;;0.98;100.00
59757;BME280;45631;51.962;5.974;2023-04-06T02:22:01;101584.59;;;1.02;100.00
59757;BME280;45631;51.962;5.974;2023-04-06T02:24:29;101580.25;;;1.06;100.00
59757;BME280;45631;51.962;5.974;2023-04-06T02:26:57;101582.91;;;1.01;100.00
59757;BME280;45631;51.962;5.974;2023-04-06T02:29:26;101577.75;;;0.98;100.00
59757;BME280;45631;51.962;5.974;2023-04-06T02:31:56;101573.53;;;0.91;100.00
59757;BME280;45631;51.962;5.974;2023-04-06T02:34:24;101576.16;;;0.88;100.00
59757;BME280;45631;51.962;5.974;2023-04-06T02:36:55;101569.25;;;0.88;100.00
59757;BME280;45631;51.962;5.974;2023-04-06T02:39:23;101569.34;;;0.79;100.00
59757;BME280;45631;51.962;5.974;2023-04-06T02:41:51;101572.69;;;0.87;100.00
59757;BME280;45631;51.962;5.974;2023-04-06T02:44:19;101569.28;;;0.87;100.00
59757;BME280;45631;51.962;5.974;2023-04-06T02:46:47;101572.72;;;0.86;100.00
59757;BME280;45631;51.962;5.974;2023-04-06T02:49:17;101564.78;;;0.98;100.00
59757;BME280;45631;51.962;5.974;2023-04-06T02:51:45;101564.13;;;0.85;100.00
59757;BME280;45631;51.962;5.974;2023-04-06T02:54:13;101565.72;;;0.94;100.00
59757;BME280;45631;51.962;5.974;2023-04-06T02:56:44;101562.31;;;0.92;100.00
59757;BME280;45631;51.962;5.974;2023-04-06T02:59:12;101560.53;;;0.94;100.00
59757;BME280;45631;51.962;5.974;2023-04-06T03:01:40;101561.41;;;0.91;100.00
59757;BME280;45631;51.962;5.974;2023-04-06T03:04:09;101555.44;;;0.88;100.00
59757;BME280;45631;51.962;5.974;2023-04-06T03:06:39;101549.44;;;0.84;100.00
59757;BME280;45631;51.962;5.974;2023-04-06T03:09:07;101548.34;;;1.00;100.00
59757;BME280;45631;51.962;5.974;2023-04-06T03:11:35;101547.56;;;0.95;100.00
59757;BME280;45631;51.962;5.974;2023-04-06T03:14:06;101548.53;;;0.88;100.00
59757;BME280;45631;51.962;5.974;2023-04-06T03:16:37;101554.56;;;0.87;100.00
59757;BME280;45631;51.962;5.974;2023-04-06T03:19:05;101548.47;;;0.91;100.00
59757;BME280;45631;51.962;5.974;2023-04-06T03:21:34;101544.16;;;0.92;100.00
59757;BME280;45631;51.962;5.974;2023-04-06T03:24:07;101540.88;;;0.79;100.00
59757;BME280;45631;51.962;5.974;2023-04-06T03:26:35;101543.53;;;0.74;100.00
59757;BME280;45631;51.962;5.974;2023-04-06T03:29:03;101542.66;;;0.75;100.00
59757;BME280;45631;51.962;5.974;2023-04-06T03:31:32;101540.09;;;0.72;100.00
59757;BME280;45631;51.962;5.974;2023-04-06T03:34:00;101544.34;;;0.79;100.00
59757;BME280;45631;51.962;5.974;2023-04-06T03:36:28;101534.75;;;0.84;100.00
59757;BME280;45631;51.962;5.974;2023-04-06T03:38:57;101533.84;;;0.89;100.00
59757;BME280;45631;51.962;5.974;2023-04-06T03:41:29;101535.56;;;0.88;100.00
59757;BME280;45631;51.962;5.974;2023-04-06T03:43:57;101535.66;;;0.83;100.00
59757;BME280;45631;51.962;5.974;2023-04-06T03:46:26;101533.88;;;0.86;100.00
59757;BME280;45631;51.962;5.974;2023-04-06T03:48:54;101535.59;;;0.87;100.00
59757;BME280;45631;51.962;5.974;2023-04-06T03:51:22;101529.50;;;0.91;100.00
59757;BME280;45631;51.962;5.974;2023-04-06T03:53:50;101530.34;;;0.93;100.00
59757;BME280;45631;51.962;5.974;2023-04-06T03:56:18;101524.31;;;0.91;100.00
59757;BME280;45631;51.962;5.974;2023-04-06T03:58:48;101527.81;;;0.87;100.00
59757;BME280;45631;51.962;5.974;2023-04-06T04:01:20;101523.28;;;1.03;100.00
59757;BME280;45631;51.962;5.974;2023-04-06T04:03:49;101529.41;;;0.95;100.00
59757;BME280;45631;51.962;5.974;2023-04-06T04:06:17;101529.38;;;1.00;100.00
59757;BME280;45631;51.962;5.974;2023-04-06T04:08:46;101524.13;;;1.03;100.00
59757;BME280;45631;51.962;5.974;2023-04-06T04:11:14;101528.53;;;0.98;100.00
59757;BME280;45631;51.962;5.974;2023-04-06T04:13:43;101527.75;;;0.93;100.00
59757;BME280;45631;51.962;5.974;2023-04-06T04:16:13;101528.69;;;0.89;100.00
59757;BME280;45631;51.962;5.974;2023-04-06T04:18:41;101526.94;;;0.89;100.00
59757;BME280;45631;51.962;5.974;2023-04-06T04:21:12;101530.38;;;0.88;100.00
59757;BME280;45631;51.962;5.974;2023-04-06T04:23:41;101528.47;;;1.03;100.00
59757;BME280;45631;51.962;5.974;2023-04-06T04:26:09;101529.41;;;0.98;100.00
59757;BME280;45631;51.962;5.974;2023-04-06T04:28:37;101531.16;;;0.95;100.00
59757;BME280;45631;51.962;5.974;2023-04-06T04:31:05;101531.13;;;0.96;100.00
59757;BME280;45631;51.962;5.974;2023-04-06T04:33:35;101538.84;;;0.99;100.00
59757;BME280;45631;51.962;5.974;2023-04-06T04:36:03;101535.47;;;0.96;100.00
59757;BME280;45631;51.962;5.974;2023-04-06T04:38:32;101533.75;;;0.95;100.00
59757;BME280;45631;51.962;5.974;2023-04-06T04:41:00;101528.53;;;0.98;100.00
59757;BME280;45631;51.962;5.974;2023-04-06T04:43:28;101535.44;;;0.97;100.00
59757;BME280;45631;51.962;5.974;2023-04-06T04:45:58;101529.41;;;0.98;100.00
59757;BME280;45631;51.962;5.974;2023-04-06T04:48:27;101536.16;;;1.07;100.00
59757;BME280;45631;51.962;5.974;2023-04-06T04:50:56;101522.34;;;1.08;100.00
59757;BME280;45631;51.962;5.974;2023-04-06T04:53:24;101530.91;;;1.13;100.00
59757;BME280;45631;51.962;5.974;2023-04-06T04:55:52;101528.31;;;1.13;100.00
59757;BME280;45631;51.962;5.974;2023-04-06T04:58:21;101526.41;;;1.25;100.00
59757;BME280;45631;51.962;5.974;2023-04-06T05:00:49;101520.38;;;1.23;100.00
59757;BME280;45631;51.962;5.974;2023-04-06T05:03:20;101523.91;;;1.18;100.00
59757;BME280;45631;51.962;5.974;2023-04-06T05:05:50;101517.78;;;1.24;100.00
59757;BME280;45631;51.962;5.974;2023-04-06T05:08:21;101518.72;;;1.20;100.00
59757;BME280;45631;51.962;5.974;2023-04-06T05:10:49;101518.72;;;1.18;100.00
59757;BME280;45631;51.962;5.974;2023-04-06T05:13:18;101519.56;;;1.21;100.00
59757;BME280;45631;51.962;5.974;2023-04-06T05:15:46;101517.84;;;1.20;100.00
59757;BME280;45631;51.962;5.974;2023-04-06T05:18:15;101524.72;;;1.22;100.00
59757;BME280;45631;51.962;5.974;2023-04-06T05:20:43;101523.75;;;1.28;100.00
59757;BME280;45631;51.962;5.974;2023-04-06T05:23:11;101514.16;;;1.34;100.00
59757;BME280;45631;51.962;5.974;2023-04-06T05:25:41;101523.72;;;1.32;100.00
59757;BME280;45631;51.962;5.974;2023-04-06T05:28:09;101519.38;;;1.33;100.00
59757;BME280;45631;51.962;5.974;2023-04-06T05:30:44;101513.31;;;1.34;100.00
59757;BME280;45631;51.962;5.974;2023-04-06T05:33:12;101511.53;;;1.36;100.00
59757;BME280;45631;51.962;5.974;2023-04-06T05:35:41;101515.78;;;1.43;100.00
59757;BME280;45631;51.962;5.974;2023-04-06T05:38:09;101513.19;;;1.43;100.00
59757;BME280;45631;51.962;5.974;2023-04-06T05:40:38;101514.78;;;1.50;100.00
59757;BME280;45631;51.962;5.974;2023-04-06T05:43:09;101498.28;;;1.55;100.00
59757;BME280;45631;51.962;5.974;2023-04-06T05:45:37;101506.88;;;1.58;100.00
59757;BME280;45631;51.962;5.974;2023-04-06T05:48:05;101501.63;;;1.61;100.00
59757;BME280;45631;51.962;5.974;2023-04-06T05:50:34;101504.13;;;1.66;100.00
59757;BME280;45631;51.962;5.974;2023-04-06T05:53:02;101498.84;;;1.72;100.00
59757;BME280;45631;51.962;5.974;2023-04-06T05:55:30;101504.84;;;1.74;100.00
59757;BME280;45631;51.962;5.974;2023-04-06T05:57:58;101501.38;;;1.75;100.00
59757;BME280;45631;51.962;5.974;2023-04-06T06:00:31;101500.44;;;1.79;100.00
59757;BME280;45631;51.962;5.974;2023-04-06T06:02:59;101500.41;;;1.81;100.00
59757;BME280;45631;51.962;5.974;2023-04-06T06:05:31;101492.50;;;1.89;100.00
59757;BME280;45631;51.962;5.974;2023-04-06T06:08:02;101497.66;;;1.90;100.00
59757;BME280;45631;51.962;5.974;2023-04-06T06:10:30;101497.56;;;1.95;100.00
59757;BME280;45631;51.962;5.974;2023-04-06T06:12:58;101505.25;;;2.01;100.00
59757;BME280;45631;51.962;5.974;2023-04-06T06:15:26;101499.91;;;2.07;100.00
59757;BME280;45631;51.962;5.974;2023-04-06T06:17:56;101499.81;;;2.13;100.00
59757;BME280;45631;51.962;5.974;2023-04-06T06:20:24;101503.13;;;2.22;100.00
59757;BME280;45631;51.962;5.974;2023-04-06T06:22:53;101500.38;;;2.29;100.00
59757;BME280;45631;51.962;5.974;2023-04-06T06:25:21;101501.03;;;2.39;100.00
59757;BME280;45631;51.962;5.974;2023-04-06T06:27:49;101495.69;;;2.45;100.00
59757;BME280;45631;51.962;5.974;2023-04-06T06:30:17;101493.88;;;2.50;100.00
59757;BME280;45631;51.962;5.974;2023-04-06T06:32:49;101497.16;;;2.59;100.00
59757;BME280;45631;51.962;5.974;2023-04-06T06:35:19;101502.13;;;2.69;100.00
59757;BME280;45631;51.962;5.974;2023-04-06T06:37:47;101508.03;;;2.76;100.00
59757;BME280;45631;51.962;5.974;2023-04-06T06:40:16;101509.59;;;2.83;100.00
59757;BME280;45631;51.962;5.974;2023-04-06T06:42:44;101506.72;;;2.96;100.00
59757;BME280;45631;51.962;5.974;2023-04-06T06:45:12;101506.47;;;3.08;100.00
59757;BME280;45631;51.962;5.974;2023-04-06T06:47:41;101507.06;;;3.19;100.00
59757;BME280;45631;51.962;5.974;2023-04-06T06:50:09;101496.34;;;3.33;100.00
59757;BME280;45631;51.962;5.974;2023-04-06T06:52:39;101495.56;;;3.64;100.00
59757;BME280;45631;51.962;5.974;2023-04-06T06:55:09;101491.41;;;3.92;100.00
59757;BME280;45631;51.962;5.974;2023-04-06T06:57:38;101492.69;;;4.08;100.00
59757;BME280;45631;51.962;5.974;2023-04-06T07:00:10;101491.44;;;4.21;100.00
59757;BME280;45631;51.962;5.974;2023-04-06T07:02:40;101488.94;;;4.48;100.00
59757;BME280;45631;51.962;5.974;2023-04-06T07:05:08;101492.72;;;4.68;100.00
59757;BME280;45631;51.962;5.974;2023-04-06T07:07:54;101489.34;;;4.93;100.00
59757;BME280;45631;51.962;5.974;2023-04-06T07:10:23;101481.19;;;5.03;100.00
59757;BME280;45631;51.962;5.974;2023-04-06T07:12:51;101476.47;;;5.15;100.00
59757;BME280;45631;51.962;5.974;2023-04-06T07:15:19;101477.63;;;5.33;100.00
59757;BME280;45631;51.962;5.974;2023-04-06T07:17:48;101470.25;;;5.46;100.00
59757;BME280;45631;51.962;5.974;2023-04-06T07:20:16;101473.81;;;5.43;100.00
59757;BME280;45631;51.962;5.974;2023-04-06T07:22:44;101470.38;;;5.68;100.00
59757;BME280;45631;51.962;5.974;2023-04-06T07:25:14;101460.31;;;5.82;99.80
59757;BME280;45631;51.962;5.974;2023-04-06T07:27:42;101462.81;;;5.85;100.00
59757;BME280;45631;51.962;5.974;2023-04-06T07:30:11;101466.91;;;5.92;98.42
59757;BME280;45631;51.962;5.974;2023-04-06T07:32:39;101461.94;;;6.10;97.28
59757;BME280;45631;51.962;5.974;2023-04-06T07:35:07;101464.34;;;6.16;97.13
59757;BME280;45631;51.962;5.974;2023-04-06T07:37:36;101466.53;;;6.27;97.23
59757;BME280;45631;51.962;5.974;2023-04-06T07:40:05;101467.72;;;6.42;95.45
59757;BME280;45631;51.962;5.974;2023-04-06T07:42:34;101465.94;;;6.44;92.35
59757;BME280;45631;51.962;5.974;2023-04-06T07:45:03;101470.50;;;6.61;93.71
59757;BME280;45631;51.962;5.974;2023-04-06T07:47:31;101462.50;;;6.66;92.03
59757;BME280;45631;51.962;5.974;2023-04-06T07:50:00;101466.34;;;6.79;88.52
59757;BME280;45631;51.962;5.974;2023-04-06T07:52:28;101462.69;;;6.83;90.75
59757;BME280;45631;51.962;5.974;2023-04-06T07:54:56;101459.66;;;6.94;91.49
59757;BME280;45631;51.962;5.974;2023-04-06T07:57:25;101462.81;;;7.02;91.40
59757;BME280;45631;51.962;5.974;2023-04-06T07:59:54;101459.22;;;7.05;92.26
59757;BME280;45631;51.962;5.974;2023-04-06T08:02:23;101464.84;;;7.16;92.64
59757;BME280;45631;51.962;5.974;2023-04-06T08:04:51;101465.63;;;7.18;92.32
59757;BME280;45631;51.962;5.974;2023-04-06T08:07:19;101459.69;;;7.15;90.03
59757;BME280;45631;51.962;5.974;2023-04-06T08:09:48;101462.91;;;7.21;90.03
59757;BME280;45631;51.962;5.974;2023-04-06T08:12:16;101462.47;;;7.32;91.42
59757;BME280;45631;51.962;5.974;2023-04-06T08:14:44;101455.25;;;7.37;92.09
59757;BME280;45631;51.962;5.974;2023-04-06T08:17:13;101459.00;;;7.52;90.13
59757;BME280;45631;51.962;5.974;2023-04-06T08:19:42;101457.31;;;7.51;91.06
59757;BME280;45631;51.962;5.974;2023-04-06T08:22:11;101463.63;;;7.66;89.61
59757;BME280;45631;51.962;5.974;2023-04-06T08:24:40;101451.28;;;7.70;87.62
59757;BME280;45631;51.962;5.974;2023-04-06T08:27:08;101450.16;;;7.75;87.16
59757;BME280;45631;51.962;5.974;2023-04-06T08:29:36;101450.28;;;7.72;89.36
59757;BME280;45631;51.962;5.974;2023-04-06T08:32:04;101451.47;;;7.86;86.72
59757;BME280;45631;51.962;5.974;2023-04-06T08:34:34;101446.16;;;7.87;87.69
59757;BME280;45631;51.962;5.974;2023-04-06T08:37:02;101448.56;;;7.92;86.66
59757;BME280;45631;51.962;5.974;2023-04-06T08:39:32;101439.09;;;8.08;86.68
59757;BME280;45631;51.962;5.974;2023-04-06T08:42:01;101437.91;;;8.16;85.29
59757;BME280;45631;51.962;5.974;2023-04-06T08:44:31;101437.97;;;8.14;83.75
59757;BME280;45631;51.962;5.974;2023-04-06T08:47:00;101441.44;;;8.15;86.28
59757;BME280;45631;51.962;5.974;2023-04-06T08:49:28;101437.63;;;8.41;80.72
59757;BME280;45631;51.962;5.974;2023-04-06T08:51:59;101433.09;;;8.44;80.61
59757;BME280;45631;51.962;5.974;2023-04-06T08:54:28;101428.28;;;8.54;79.30
59757;BME280;45631;51.962;5.974;2023-04-06T08:56:56;101434.53;;;8.52;79.47
59757;BME280;45631;51.962;5.974;2023-04-06T08:59:24;101441.44;;;8.72;81.34
59757;BME280;45631;51.962;5.974;2023-04-06T09:01:54;101441.84;;;8.82;78.58
59757;BME280;45631;51.962;5.974;2023-04-06T09:04:23;101445.41;;;8.80;77.79
59757;BME280;45631;51.962;5.974;2023-04-06T09:06:55;101439.56;;;8.93;78.06
59757;BME280;45631;51.962;5.974;2023-04-06T09:09:25;101435.66;;;9.02;79.32
59757;BME280;45631;51.962;5.974;2023-04-06T09:11:53;101436.28;;;9.07;77.50
59757;BME280;45631;51.962;5.974;2023-04-06T09:14:34;101441.72;;;9.02;76.77
59757;BME280;45631;51.962;5.974;2023-04-06T09:17:03;101443.06;;;9.11;77.44
59757;BME280;45631;51.962;5.974;2023-04-06T09:19:32;101439.84;;;9.23;76.80
59757;BME280;45631;51.962;5.974;2023-04-06T09:22:03;101438.59;;;9.30;76.54
59757;BME280;45631;51.962;5.974;2023-04-06T09:24:44;101439.34;;;9.50;77.31
59757;BME280;45631;51.962;5.974;2023-04-06T09:27:14;101439.13;;;9.55;75.82
59757;BME280;45631;51.962;5.974;2023-04-06T09:29:43;101439.69;;;9.44;74.96
59757;BME280;45631;51.962;5.974;2023-04-06T09:32:12;101441.34;;;9.62;75.06
59757;BME280;45631;51.962;5.974;2023-04-06T09:34:46;101434.38;;;9.79;76.38
59757;BME280;45631;51.962;5.974;2023-04-06T09:37:18;101435.06;;;9.82;76.19
59757;BME280;45631;51.962;5.974;2023-04-06T09:39:47;101438.13;;;9.91;75.88
59757;BME280;45631;51.962;5.974;2023-04-06T09:42:23;101432.75;;;10.10;76.76
59757;BME280;45631;51.962;5.974;2023-04-06T09:44:52;101431.03;;;10.09;74.84
59757;BME280;45631;51.962;5.974;2023-04-06T09:47:21;101428.69;;;10.20;75.45
59757;BME280;45631;51.962;5.974;2023-04-06T09:49:56;101427.50;;;10.26;76.04
59757;BME280;45631;51.962;5.974;2023-04-06T09:52:26;101429.53;;;10.21;75.87
59757;BME280;45631;51.962;5.974;2023-04-06T09:55:00;101422.34;;;10.24;75.02
59757;BME280;45631;51.962;5.974;2023-04-06T09:57:32;101430.63;;;10.50;76.43
59757;BME280;45631;51.962;5.974;2023-04-06T10:00:04;101433.22;;;10.66;75.39
59757;BME280;45631;51.962;5.974;2023-04-06T10:02:44;101427.34;;;10.77;75.84
59757;BME280;45631;51.962;5.974;2023-04-06T10:05:18;101423.19;;;10.89;74.14
59757;BME280;45631;51.962;5.974;2023-04-06T10:07:48;101427.53;;;10.74;74.60
59757;BME280;45631;51.962;5.974;2023-04-06T10:10:28;101426.09;;;10.84;75.41
59757;BME280;45631;51.962;5.974;2023-04-06T10:12:57;101425.41;;;11.11;75.55
59757;BME280;45631;51.962;5.974;2023-04-06T10:15:27;101428.00;;;11.27;72.75
59757;BME280;45631;51.962;5.974;2023-04-06T10:17:56;101426.59;;;11.21;71.61
59757;BME280;45631;51.962;5.974;2023-04-06T10:20:30;101430.97;;;11.21;72.74
59757;BME280;45631;51.962;5.974;2023-04-06T10:23:06;101428.31;;;11.37;71.56
59757;BME280;45631;51.962;5.974;2023-04-06T10:25:36;101426.34;;;11.40;70.24
59757;BME280;45631;51.962;5.974;2023-04-06T10:28:05;101428.22;;;11.38;73.06
59757;BME280;45631;51.962;5.974;2023-04-06T10:30:35;101427.97;;;11.43;73.00
59757;BME280;45631;51.962;5.974;2023-04-06T10:33:15;101435.47;;;11.49;68.66
59757;BME280;45631;51.962;5.974;2023-04-06T10:35:44;101437.00;;;11.53;68.04
59757;BME280;45631;51.962;5.974;2023-04-06T10:38:13;101434.03;;;11.29;67.50
59757;BME280;45631;51.962;5.974;2023-04-06T10:40:43;101428.84;;;11.27;69.37
59757;BME280;45631;51.962;5.974;2023-04-06T10:43:12;101431.81;;;11.37;69.14
59757;BME280;45631;51.962;5.974;2023-04-06T10:45:41;101434.34;;;11.39;70.54
59757;BME280;45631;51.962;5.974;2023-04-06T10:48:13;101429.25;;;11.36;70.67
59757;BME280;45631;51.962;5.974;2023-04-06T10:50:44;101433.72;;;11.19;70.53
59757;BME280;45631;51.962;5.974;2023-04-06T10:53:21;101424.38;;;11.13;71.87
59757;BME280;45631;51.962;5.974;2023-04-06T10:55:51;101424.53;;;11.26;72.94
59757;BME280;45631;51.962;5.974;2023-04-06T10:58:20;101425.31;;;11.43;73.38
59757;BME280;45631;51.962;5.974;2023-04-06T11:00:52;101424.53;;;11.26;72.92
59757;BME280;45631;51.962;5.974;2023-04-06T11:03:20;101425.47;;;11.40;74.09
59757;BME280;45631;51.962;5.974;2023-04-06T11:05:49;101430.34;;;11.31;73.98
59757;BME280;45631;51.962;5.974;2023-04-06T11:08:27;101430.81;;;11.24;74.60
59757;BME280;45631;51.962;5.974;2023-04-06T11:11:08;101430.13;;;11.50;74.93
59757;BME280;45631;51.962;5.974;2023-04-06T11:13:38;101422.63;;;11.88;75.18
59757;BME280;45631;51.962;5.974;2023-04-06T11:16:12;101421.25;;;11.96;74.09
59757;BME280;45631;51.962;5.974;2023-04-06T11:18:51;101428.19;;;12.12;73.61
59757;BME280;45631;51.962;5.974;2023-04-06T11:21:20;101425.38;;;12.15;72.31
59757;BME280;45631;51.962;5.974;2023-04-06T11:24:09;101429.63;;;12.03;75.15
59757;BME280;45631;51.962;5.974;2023-04-06T11:26:40;101425.78;;;11.94;74.66
59757;BME280;45631;51.962;5.974;2023-04-06T11:29:11;101420.69;;;12.06;73.81
59757;BME280;45631;51.962;5.974;2023-04-06T11:31:40;101424.91;;;12.08;73.91
59757;BME280;45631;51.962;5.974;2023-04-06T11:34:12;101419.72;;;12.21;74.53
59757;BME280;45631;51.962;5.974;2023-04-06T11:36:41;101423.25;;;12.49;74.21
59757;BME280;45631;51.962;5.974;2023-04-06T11:39:13;101415.41;;;12.47;74.37
59757;BME280;45631;51.962;5.974;2023-04-06T11:41:49;101411.75;;;12.08;74.16
59757;BME280;45631;51.962;5.974;2023-04-06T11:44:29;101412.19;;;12.15;75.08
59757;BME280;45631;51.962;5.974;2023-04-06T11:46:58;101420.38;;;12.25;75.31
59757;BME280;45631;51.962;5.974;2023-04-06T11:49:27;101411.78;;;12.21;75.72
59757;BME280;45631;51.962;5.974;2023-04-06T11:51:56;101410.03;;;12.07;77.46
59757;BME280;45631;51.962;5.974;2023-04-06T11:54:32;101408.03;;;11.82;80.24
59757;BME280;45631;51.962;5.974;2023-04-06T11:57:02;101413.50;;;11.93;85.13
59757;BME280;45631;51.962;5.974;2023-04-06T11:59:30;101408.22;;;11.64;87.34
59757;BME280;45631;51.962;5.974;2023-04-06T12:01:59;101409.25;;;11.76;89.73
59757;BME280;45631;51.962;5.974;2023-04-06T12:04:28;101418.75;;;11.79;89.11
59757;BME280;45631;51.962;5.974;2023-04-06T12:06:57;101416.78;;;11.82;91.24
59757;BME280;45631;51.962;5.974;2023-04-06T12:09:25;101410.16;;;11.46;92.07
59757;BME280;45631;51.962;5.974;2023-04-06T12:11:53;101421.19;;;11.53;95.51
59757;BME280;45631;51.962;5.974;2023-04-06T12:14:24;101415.91;;;11.53;98.79
59757;BME280;45631;51.962;5.974;2023-04-06T12:16:52;101427.88;;;11.44;100.00
59757;BME280;45631;51.962;5.974;2023-04-06T12:19:20;101416.63;;;11.26;100.00
59757;BME280;45631;51.962;5.974;2023-04-06T12:21:52;101421.09;;;11.10;100.00
59757;BME280;45631;51.962;5.974;2023-04-06T12:24:21;101417.72;;;10.92;100.00
59757;BME280;45631;51.962;5.974;2023-04-06T12:26:49;101422.75;;;10.96;100.00
59757;BME280;45631;51.962;5.974;2023-04-06T12:29:33;101422.97;;;10.61;100.00
59757;BME280;45631;51.962;5.974;2023-04-06T12:32:02;101417.09;;;10.56;100.00
59757;BME280;45631;51.962;5.974;2023-04-06T12:34:30;101421.94;;;10.48;100.00
59757;BME280;45631;51.962;5.974;2023-04-06T12:37:00;101422.94;;;10.29;100.00
59757;BME280;45631;51.962;5.974;2023-04-06T12:39:29;101425.63;;;10.28;100.00
59757;BME280;45631;51.962;5.974;2023-04-06T12:41:57;101433.09;;;10.20;100.00
59757;BME280;45631;51.962;5.974;2023-04-06T12:44:25;101420.97;;;9.50;100.00
59757;BME280;45631;51.962;5.974;2023-04-06T12:46:55;101418.28;;;9.52;100.00
59757;BME280;45631;51.962;5.974;2023-04-06T12:49:23;101417.72;;;9.62;100.00
59757;BME280;45631;51.962;5.974;2023-04-06T12:51:52;101403.75;;;9.62;100.00
59757;BME280;45631;51.962;5.974;2023-04-06T12:54:20;101410.78;;;9.61;100.00
59757;BME280;45631;51.962;5.974;2023-04-06T12:56:48;101415.81;;;9.31;100.00
59757;BME280;45631;51.962;5.974;2023-04-06T12:59:17;101410.63;;;9.29;100.00
59757;BME280;45631;51.962;5.974;2023-04-06T13:01:45;101405.72;;;9.41;100.00